Time;durP1;ratioP1;P1;durP2;ratioP2;P2;SDS_P1;SDS_P2;PMS_P1;PMS_P2;Temp;Humidity;BMP_temperature;BMP_pressure;BME280_temperature;BME280_humidity;BME280_pressure;Samples;Min_cycle;Max_cycle;Signal;HPM_P1;HPM_P2
2022/09/05 00:02:37;;;;;;;2.90;2.28;;;18.20;52.10;;;;;;4996879;28;20198;-60
2022/09/05 00:05:25;;;;;;;2.20;2.00;;;18.10;54.60;;;;;;4945368;28;20235;-61
2022/09/05 00:08:01;;;;;;;2.35;2.13;;;18.10;46.20;;;;;;5009926;28;20213;-60
2022/09/05 00:10:37;;;;;;;2.40;2.15;;;18.10;63.70;;;;;;5008330;28;20205;-60
2022/09/05 00:13:12;;;;;;;2.40;2.17;;;18.10;45.10;;;;;;4982823;28;20210;-60
2022/09/05 00:15:51;;;;;;;3.05;2.30;;;17.80;98.30;;;;;;5009882;28;20206;-60
2022/09/05 00:18:44;;;;;;;2.70;2.50;;;18.10;48.30;;;;;;4998364;28;20236;-60
2022/09/05 00:21:24;;;;;;;2.35;2.15;;;18.10;66.70;;;;;;4994496;28;20214;-60
2022/09/05 00:24:07;;;;;;;4.60;2.47;;;18.30;99.90;;;;;;5008981;28;20206;-60
2022/09/05 00:26:48;;;;;;;3.03;2.28;;;18.10;67.50;;;;;;5008753;28;20692;-60
2022/09/05 00:29:27;;;;;;;3.28;2.20;;;18.10;67.90;;;;;;4979905;28;20209;-60
2022/09/05 00:32:03;;;;;;;3.08;2.42;;;18.10;63.30;;;;;;5010302;28;20217;-61
2022/09/05 00:34:56;;;;;;;3.83;2.13;;;16.40;61.90;;;;;;4993396;28;20748;-60
2022/09/05 00:37:35;;;;;;;5.20;1.98;;;18.10;99.90;;;;;;4991007;28;20206;-60
2022/09/05 00:40:22;;;;;;;2.85;2.08;;;18.00;88.90;;;;;;5003483;28;20205;-60
2022/09/05 00:42:53;;;;;;;2.72;1.88;;;18.10;62.00;;;;;;5005623;28;20214;-60
2022/09/05 00:45:30;;;;;;;2.70;2.47;;;18.00;61.90;;;;;;4966912;28;20226;-60
2022/09/05 00:48:14;;;;;;;2.85;2.20;;;18.10;50.00;;;;;;5004786;28;20202;-60
2022/09/05 00:51:07;;;;;;;3.08;2.40;;;18.10;70.50;;;;;;4995341;28;20202;-60
2022/09/05 00:53:44;;;;;;;3.20;2.80;;;18.00;98.00;;;;;;4995795;28;20601;-60
2022/09/05 00:56:26;;;;;;;3.08;2.22;;;18.00;66.30;;;;;;5000768;28;20217;-60
2022/09/05 00:59:29;;;;;;;5.93;2.60;;;18.00;67.80;;;;;;4999624;28;20917;-60
2022/09/05 01:02:03;;;;;;;2.92;2.30;;;18.00;70.30;;;;;;4973401;28;20804;-60
2022/09/05 01:04:39;;;;;;;2.65;2.20;;;18.00;96.60;;;;;;4994959;28;20205;-60
2022/09/05 01:07:26;;;;;;;2.83;2.50;;;18.00;90.40;;;;;;4996472;28;20233;-60
2022/09/05 01:10:05;;;;;;;5.85;2.08;;;18.00;47.30;;;;;;4992034;28;20233;-60
2022/09/05 01:12:45;;;;;;;3.13;2.47;;;17.90;96.50;;;;;;5010366;28;20200;-60
2022/09/05 01:15:25;;;;;;;3.03;2.38;;;18.00;68.40;;;;;;5004112;28;20221;-60
2022/09/05 01:18:19;;;;;;;2.65;2.13;;;18.00;96.20;;;;;;4984674;28;20205;-60
2022/09/05 01:21:04;;;;;;;3.00;2.05;;;17.80;90.40;;;;;;5002624;28;20209;-60
2022/09/05 01:23:50;;;;;;;3.45;2.40;;;18.00;60.60;;;;;;5008700;28;20202;-60
2022/09/05 01:26:38;;;;;;;2.40;2.13;;;18.00;49.00;;;;;;5002957;28;20229;-60
2022/09/05 01:29:13;;;;;;;2.50;2.00;;;18.00;99.90;;;;;;5004896;28;20691;-60
2022/09/05 01:31:50;;;;;;;2.40;2.20;;;18.00;47.60;;;;;;5014151;28;20221;-61
2022/09/05 01:34:24;;;;;;;2.92;2.03;;;17.90;67.70;;;;;;4994901;28;20206;-61
2022/09/05 01:36:58;;;;;;;3.03;2.22;;;17.90;54.30;;;;;;5001410;28;20202;-60
2022/09/05 01:39:35;;;;;;;3.22;2.30;;;17.90;81.30;;;;;;5000386;28;20205;-60
2022/09/05 01:42:12;;;;;;;2.42;2.20;;;17.90;71.80;;;;;;5002447;28;20213;-60
2022/09/05 01:44:49;;;;;;;2.65;2.40;;;17.90;71.60;;;;;;5011195;28;20203;-60
2022/09/05 01:47:28;;;;;;;2.35;1.98;;;18.10;95.90;;;;;;4983847;28;20230;-61
2022/09/05 01:50:00;;;;;;;2.15;1.95;;;17.90;73.10;;;;;;5006140;28;20213;-60
2022/09/05 01:52:41;;;;;;;3.80;2.55;;;17.70;99.30;;;;;;5007286;28;20210;-60
2022/09/05 01:55:25;;;;;;;2.90;2.03;;;17.90;59.20;;;;;;4995734;28;20198;-60
2022/09/05 01:58:02;;;;;;;2.72;2.33;;;17.90;75.00;;;;;;4998489;28;20210;-60
2022/09/05 02:00:39;;;;;;;2.40;2.20;;;17.80;99.90;;;;;;5008598;28;20204;-60
2022/09/05 02:03:18;;;;;;;2.45;2.25;;;17.80;99.90;;;;;;4983490;28;20206;-60
2022/09/05 02:06:25;;;;;;;2.90;2.50;;;17.80;89.30;;;;;;5010642;28;20233;-60
2022/09/05 02:09:10;;;;;;;2.40;2.20;;;17.80;63.80;;;;;;5007110;28;20205;-60
2022/09/05 02:11:43;;;;;;;3.85;2.30;;;17.60;99.90;;;;;;5011135;28;20680;-60
2022/09/05 02:14:22;;;;;;;4.07;2.30;;;17.70;74.80;;;;;;4997252;28;20225;-60
2022/09/05 02:16:54;;;;;;;4.35;2.38;;;17.80;93.20;;;;;;5010863;28;20208;-60
2022/09/05 02:19:28;;;;;;;4.43;2.78;;;17.80;99.90;;;;;;4980930;28;20540;-60
2022/09/05 02:22:02;;;;;;;3.20;2.40;;;17.50;99.90;;;;;;5000117;28;20217;-60
2022/09/05 02:24:36;;;;;;;3.55;2.60;;;17.70;97.60;;;;;;5010847;28;20199;-60
2022/09/05 02:27:13;;;;;;;3.03;2.60;;;17.50;99.90;;;;;;4991597;28;20241;-60
2022/09/05 02:29:46;;;;;;;3.17;2.30;;;17.80;89.80;;;;;;4998767;28;20202;-60
2022/09/05 02:32:21;;;;;;;3.80;2.45;;;17.70;86.40;;;;;;5006076;28;20667;-60
2022/09/05 02:34:58;;;;;;;2.72;2.22;;;17.70;98.40;;;;;;4985078;28;20210;-60
2022/09/05 02:37:32;;;;;;;3.67;2.45;;;17.70;99.90;;;;;;4997158;28;21332;-60
2022/09/05 02:40:05;;;;;;;3.30;2.40;;;17.70;92.20;;;;;;5007161;28;20213;-60
2022/09/05 02:42:39;;;;;;;2.58;2.38;;;17.70;90.90;;;;;;4997345;28;20313;-60
2022/09/05 02:45:22;;;;;;;4.85;2.78;;;17.70;99.90;;;;;;4999442;28;20198;-60
2022/09/05 02:47:57;;;;;;;2.90;2.50;;;17.70;99.90;;;;;;5013297;28;20241;-60
2022/09/05 02:50:35;;;;;;;3.88;2.40;;;17.90;99.90;;;;;;4984939;28;20567;-60
2022/09/05 02:53:03;;;;;;;2.75;2.47;;;17.60;99.90;;;;;;4999502;28;20222;-60
2022/09/05 02:55:42;;;;;;;4.20;2.50;;;17.40;99.90;;;;;;5012463;28;20201;-60
2022/09/05 02:58:29;;;;;;;4.78;2.30;;;17.60;99.90;;;;;;4987170;28;20719;-60
2022/09/05 03:01:07;;;;;;;2.72;1.90;;;17.60;99.90;;;;;;4990008;28;20212;-60
2022/09/05 03:03:40;;;;;;;2.45;2.20;;;17.60;99.90;;;;;;5012938;28;20198;-60
2022/09/05 03:06:16;;;;;;;4.03;2.80;;;17.50;99.90;;;;;;4979333;28;20611;-60
2022/09/05 03:08:57;;;;;;;3.58;2.70;;;17.80;99.90;;;;;;5000195;28;20208;-60
2022/09/05 03:12:12;;;;;;;2.67;2.47;;;17.60;99.90;;;;;;5010436;28;20265;-60
2022/09/05 03:15:23;;;;;;;4.30;2.58;;;17.50;99.90;;;;;;4995218;28;20231;-60
2022/09/05 03:18:13;;;;;;;2.65;2.38;;;17.60;99.90;;;;;;5006361;28;20208;-60
2022/09/05 03:21:12;;;;;;;3.70;2.53;;;17.50;99.90;;;;;;4986398;28;20222;-60
2022/09/05 03:24:05;;;;;;;4.57;2.55;;;17.50;99.90;;;;;;4993974;28;20318;-60
2022/09/05 03:27:03;;;;;;;2.38;2.08;;;17.50;99.90;;;;;;5004687;28;20229;-60
2022/09/05 03:30:01;;;;;;;3.15;2.63;;;17.50;99.90;;;;;;4999046;28;20209;-60
2022/09/05 03:33:05;;;;;;;2.55;2.35;;;17.50;99.90;;;;;;4992708;28;20198;-60
2022/09/05 03:36:19;;;;;;;3.65;2.83;;;17.50;99.90;;;;;;4986556;28;21646;-60
2022/09/05 03:39:25;;;;;;;3.92;2.72;;;17.40;99.90;;;;;;5000604;28;20653;-60
2022/09/05 03:42:13;;;;;;;5.18;2.60;;;17.50;99.90;;;;;;5011750;28;20205;-60
2022/09/05 03:44:51;;;;;;;2.92;2.35;;;17.40;99.90;;;;;;4993410;28;20217;-60
2022/09/05 03:47:42;;;;;;;6.00;2.50;;;17.40;99.90;;;;;;4988325;28;20225;-60
2022/09/05 03:50:28;;;;;;;3.30;2.55;;;17.40;99.90;;;;;;5004310;28;20212;-60
2022/09/05 03:53:31;;;;;;;2.50;2.28;;;17.40;99.90;;;;;;4988322;28;20210;-60
2022/09/05 03:56:16;;;;;;;3.67;2.45;;;17.40;99.90;;;;;;5005729;28;20236;-61
2022/09/05 03:58:55;;;;;;;4.00;2.65;;;17.10;99.90;;;;;;4999601;28;20225;-60
2022/09/05 04:01:26;;;;;;;5.07;2.05;;;17.30;99.90;;;;;;4983438;28;20248;-61
2022/09/05 04:03:57;;;;;;;2.75;2.33;;;17.30;99.90;;;;;;5003029;28;20260;-60
2022/09/05 04:06:32;;;;;;;3.28;2.58;;;17.30;99.90;;;;;;4993714;28;21572;-61
2022/09/05 04:09:09;;;;;;;3.95;2.95;;;17.30;99.90;;;;;;4972219;28;20210;-61
2022/09/05 04:11:40;;;;;;;4.45;2.42;;;17.20;99.90;;;;;;5002774;28;20660;-61
2022/09/05 04:14:10;;;;;;;3.95;2.55;;;17.30;99.90;;;;;;5004027;28;20222;-61
2022/09/05 04:16:49;;;;;;;4.47;2.67;;;17.30;99.90;;;;;;4983974;28;20236;-61
2022/09/05 04:19:24;;;;;;;2.83;2.50;;;17.40;99.90;;;;;;4985219;28;20225;-61
2022/09/05 04:21:57;;;;;;;2.25;2.05;;;17.20;99.90;;;;;;5004689;28;20225;-61
2022/09/05 04:24:31;;;;;;;2.88;2.50;;;17.30;99.90;;;;;;4966420;28;20206;-61
2022/09/05 04:27:15;;;;;;;3.13;2.78;;;17.10;99.90;;;;;;5004502;28;20225;-61
2022/09/05 04:29:58;;;;;;;3.08;2.50;;;17.30;99.90;;;;;;4992203;28;20550;-61
2022/09/05 04:32:40;;;;;;;2.97;2.42;;;17.30;99.90;;;;;;4982333;28;20386;-61
2022/09/05 04:35:25;;;;;;;5.72;2.35;;;17.00;99.90;;;;;;5001830;28;20202;-61
2022/09/05 04:37:58;;;;;;;5.10;2.55;;;17.20;99.90;;;;;;5008066;28;20222;-61
2022/09/05 04:40:42;;;;;;;6.10;2.25;;;17.20;99.90;;;;;;4971961;28;20229;-61
2022/09/05 04:43:15;;;;;;;2.92;2.50;;;17.40;99.90;;;;;;5007930;28;20220;-61
2022/09/05 04:45:49;;;;;;;4.97;2.65;;;17.10;99.90;;;;;;4997734;28;20468;-61
2022/09/05 04:48:21;;;;;;;2.80;2.42;;;17.30;99.90;;;;;;4996219;28;20233;-61
2022/09/05 04:51:03;;;;;;;2.58;2.38;;;17.10;99.90;;;;;;4998279;28;20587;-61
2022/09/05 04:53:52;;;;;;;4.38;2.70;;;15.60;99.90;;;;;;4990265;28;20218;-61
2022/09/05 04:56:25;;;;;;;3.13;2.35;;;17.10;99.90;;;;;;4993005;28;20237;-61
2022/09/05 04:58:59;;;;;;;3.47;2.65;;;17.10;99.90;;;;;;5003929;28;20214;-61
2022/09/05 05:01:30;;;;;;;4.13;2.78;;;16.90;99.90;;;;;;4999677;28;20203;-61
2022/09/05 05:04:06;;;;;;;2.97;2.70;;;17.00;99.90;;;;;;4994579;28;22764;-61
2022/09/05 05:06:38;;;;;;;5.95;2.70;;;17.00;99.90;;;;;;4995541;28;20303;-61
2022/09/05 05:09:14;;;;;;;3.83;2.75;;;17.10;99.90;;;;;;5006205;28;22229;-61
2022/09/05 05:11:51;;;;;;;5.18;2.90;;;18.00;99.90;;;;;;4974187;28;20383;-61
2022/09/05 05:14:22;;;;;;;3.00;2.67;;;17.10;99.90;;;;;;5006483;28;20202;-61
2022/09/05 05:16:55;;;;;;;3.25;2.28;;;17.20;99.90;;;;;;5003311;28;20732;-61
2022/09/05 05:19:27;;;;;;;2.60;2.38;;;17.10;99.90;;;;;;5003870;28;20222;-61
2022/09/05 05:21:56;;;;;;;7.65;2.60;;;16.90;99.90;;;;;;5000200;28;20223;-61
2022/09/05 05:24:27;;;;;;;2.55;2.35;;;17.00;99.90;;;;;;5000463;28;20218;-61
2022/09/05 05:27:03;;;;;;;6.85;2.88;;;17.00;99.90;;;;;;4984617;28;20234;-61
2022/09/05 05:29:42;;;;;;;4.00;2.92;;;17.00;99.90;;;;;;4986929;28;20218;-61
2022/09/05 05:32:14;;;;;;;3.83;2.88;;;17.10;99.90;;;;;;5005293;28;20221;-61
2022/09/05 05:34:45;;;;;;;3.35;2.65;;;17.20;99.90;;;;;;4987343;28;20730;-61
2022/09/05 05:37:19;;;;;;;3.13;2.80;;;17.00;99.90;;;;;;5008615;28;20206;-61
2022/09/05 05:39:50;;;;;;;6.97;2.95;;;17.00;99.90;;;;;;5015634;28;20210;-61
2022/09/05 05:42:21;;;;;;;7.88;2.40;;;15.70;99.90;;;;;;4973445;28;20407;-61
2022/09/05 05:44:51;;;;;;;7.15;3.15;;;17.00;99.90;;;;;;5012074;28;20707;-61
2022/09/05 05:47:21;;;;;;;5.07;2.50;;;17.00;99.90;;;;;;5008483;28;21313;-61
2022/09/05 05:49:59;;;;;;;2.95;2.70;;;17.10;99.90;;;;;;5000024;28;20219;-61
2022/09/05 05:52:59;;;;;;;3.22;2.92;;;17.10;99.90;;;;;;5004686;28;20209;-61
2022/09/05 05:55:46;;;;;;;3.08;2.60;;;17.20;99.90;;;;;;4989027;28;20792;-61
2022/09/05 05:58:32;;;;;;;8.15;2.65;;;17.30;99.90;;;;;;4996195;28;20226;-61
2022/09/05 06:01:40;;;;;;;2.67;2.40;;;17.30;99.90;;;;;;5007369;28;20214;-60
2022/09/05 06:04:38;;;;;;;4.50;2.75;;;17.30;99.90;;;;;;4998307;28;20202;-61
2022/09/05 06:07:10;;;;;;;3.53;2.72;;;17.40;99.90;;;;;;5000010;28;20241;-61
2022/09/05 06:09:59;;;;;;;16.60;3.20;;;17.40;99.90;;;;;;5005504;28;20199;-61
2022/09/05 06:13:01;;;;;;;11.50;3.38;;;17.40;99.90;;;;;;4988119;28;20216;-60
2022/09/05 06:15:54;;;;;;;3.42;2.38;;;17.40;99.90;;;;;;5003284;28;20206;-61
2022/09/05 06:18:56;;;;;;;4.00;2.85;;;17.40;99.90;;;;;;5006078;28;20201;-61
2022/09/05 06:22:12;;;;;;;8.10;3.95;;;17.50;99.90;;;;;;4997755;28;20239;-61
2022/09/05 06:25:27;;;;;;;3.35;2.63;;;17.50;99.90;;;;;;4910365;29;20299;-61
2022/09/05 06:28:15;;;;;;;6.05;2.70;;;17.50;99.90;;;;;;4984641;28;20231;-61
2022/09/05 06:30:52;;;;;;;6.47;2.75;;;16.10;99.90;;;;;;4999301;28;20210;-61
2022/09/05 06:33:34;;;;;;;3.17;2.88;;;17.50;99.90;;;;;;5003177;28;20579;-61
2022/09/05 06:36:15;;;;;;;5.60;3.00;;;17.70;99.90;;;;;;4995132;28;20206;-61
2022/09/05 06:39:01;;;;;;;3.33;2.92;;;17.60;99.90;;;;;;4998895;28;20206;-61
2022/09/05 06:41:39;;;;;;;10.05;2.78;;;17.60;99.90;;;;;;5009886;28;20194;-61
2022/09/05 06:44:37;;;;;;;2.80;2.50;;;17.60;99.90;;;;;;4976495;28;20214;-61
2022/09/05 06:47:10;;;;;;;2.92;2.63;;;17.60;99.90;;;;;;5003605;28;20206;-61
2022/09/05 06:49:54;;;;;;;2.95;2.70;;;17.60;99.90;;;;;;5010706;28;20202;-61
2022/09/05 06:52:51;;;;;;;3.63;2.60;;;17.60;99.90;;;;;;4994474;28;20209;-61
2022/09/05 06:55:48;;;;;;;3.13;2.72;;;17.50;99.90;;;;;;4997252;28;20399;-61
2022/09/05 06:58:58;;;;;;;3.28;2.50;;;17.80;99.90;;;;;;4980719;28;20285;-61
2022/09/05 07:01:29;;;;;;;5.53;2.90;;;17.70;99.90;;;;;;4996115;28;20209;-61
2022/09/05 07:04:13;;;;;;;2.88;2.67;;;17.90;99.90;;;;;;5005500;28;20313;-61
2022/09/05 07:06:54;;;;;;;4.57;3.10;;;17.80;99.90;;;;;;4996159;28;20590;-61
2022/09/05 07:09:25;;;;;;;4.47;2.47;;;18.00;99.90;;;;;;4996242;28;20219;-61
2022/09/05 07:12:01;;;;;;;5.20;3.00;;;18.10;99.90;;;;;;5005543;28;20210;-62
2022/09/05 07:14:31;;;;;;;4.00;3.10;;;18.10;99.90;;;;;;4983387;28;20214;-61
2022/09/05 07:17:09;;;;;;;3.33;2.90;;;18.20;99.90;;;;;;4999410;28;20201;-61
2022/09/05 07:19:45;;;;;;;5.18;2.92;;;18.20;99.90;;;;;;5005000;28;20727;-61
2022/09/05 07:22:31;;;;;;;2.70;2.50;;;18.70;99.90;;;;;;4998979;28;20716;-61
2022/09/05 07:24:59;;;;;;;3.50;2.72;;;18.40;99.90;;;;;;4995370;28;20206;-61
2022/09/05 07:27:34;;;;;;;4.13;2.97;;;18.40;99.90;;;;;;5005227;28;20217;-61
2022/09/05 07:30:02;;;;;;;3.28;2.95;;;18.60;99.90;;;;;;4992693;28;20209;-61
2022/09/05 07:32:31;;;;;;;3.38;2.85;;;20.00;99.90;;;;;;4995164;28;20221;-62
2022/09/05 07:35:02;;;;;;;2.88;2.53;;;18.50;99.90;;;;;;4997865;28;20245;-61
2022/09/05 07:37:35;;;;;;;7.85;3.38;;;18.80;99.90;;;;;;4997144;28;20210;-61
2022/09/05 07:40:08;;;;;;;3.80;2.90;;;18.50;99.90;;;;;;5006505;28;20202;-61
2022/09/05 07:42:40;;;;;;;3.42;2.97;;;18.60;99.90;;;;;;4982283;28;20212;-62
2022/09/05 07:45:10;;;;;;;3.40;3.10;;;19.00;99.90;;;;;;5005911;28;20202;-63
2022/09/05 07:47:43;;;;;;;3.53;2.78;;;18.70;99.90;;;;;;4996145;28;20232;-62
2022/09/05 07:50:12;;;;;;;4.53;3.25;;;18.80;99.90;;;;;;4995245;28;20209;-62
2022/09/05 07:52:43;;;;;;;6.10;3.05;;;18.90;99.90;;;;;;4995895;28;20210;-62
2022/09/05 07:55:25;;;;;;;3.35;2.65;;;18.90;99.90;;;;;;5005326;28;20340;-60
2022/09/05 07:57:56;;;;;;;3.58;2.90;;;18.90;99.90;;;;;;4994546;28;20233;-61
2022/09/05 08:00:25;;;;;;;3.45;2.85;;;19.10;99.90;;;;;;4981090;28;20237;-61
2022/09/05 08:02:52;;;;;;;3.25;2.95;;;19.00;99.90;;;;;;4992678;28;20209;-61
2022/09/05 08:05:23;;;;;;;3.17;2.88;;;19.00;99.90;;;;;;4995502;28;20317;-61
2022/09/05 08:07:54;;;;;;;3.40;3.10;;;19.00;99.90;;;;;;4996244;28;20607;-61
2022/09/05 08:10:26;;;;;;;5.25;3.30;;;19.00;99.90;;;;;;5002625;28;20190;-62
2022/09/05 08:12:56;;;;;;;4.03;3.28;;;19.10;99.90;;;;;;4992819;28;20812;-61
2022/09/05 08:15:26;;;;;;;4.25;2.53;;;19.30;99.90;;;;;;4982429;28;20695;-61
2022/09/05 08:18:05;;;;;;;10.95;2.90;;;18.80;99.90;;;;;;5000668;28;20205;-62
2022/09/05 08:20:42;;;;;;;6.15;3.47;;;19.30;99.90;;;;;;4996457;28;20202;-62
2022/09/05 08:23:19;;;;;;;4.18;2.90;;;19.30;99.90;;;;;;5003455;28;20256;-62
2022/09/05 08:25:57;;;;;;;8.65;3.10;;;19.60;99.90;;;;;;4994428;28;20206;-62
2022/09/05 08:28:31;;;;;;;3.75;3.20;;;19.40;99.90;;;;;;4991898;28;20320;-61
2022/09/05 08:31:05;;;;;;;6.47;3.22;;;19.50;99.90;;;;;;4981046;28;20210;-64
2022/09/05 08:33:34;;;;;;;6.85;3.05;;;19.60;99.90;;;;;;5004325;28;20712;-61
2022/09/05 08:36:10;;;;;;;6.32;2.95;;;19.60;99.90;;;;;;4992513;28;20217;-61
2022/09/05 08:38:41;;;;;;;3.38;3.00;;;19.70;99.90;;;;;;5000024;28;21072;-61
2022/09/05 08:41:16;;;;;;;4.50;3.58;;;19.90;99.90;;;;;;5004099;28;20313;-63
2022/09/05 08:43:55;;;;;;;5.07;3.45;;;19.80;99.90;;;;;;4995368;28;20217;-62
2022/09/05 08:46:31;;;;;;;6.18;3.20;;;19.90;99.90;;;;;;4986079;28;20223;-62
2022/09/05 08:49:33;;;;;;;4.70;3.30;;;20.10;99.90;;;;;;5002178;28;20240;-61
2022/09/05 08:52:07;;;;;;;4.45;3.15;;;20.10;99.90;;;;;;4989553;28;20228;-61
2022/09/05 08:54:44;;;;;;;3.45;3.15;;;20.20;99.90;;;;;;5003095;28;20198;-61
2022/09/05 08:57:18;;;;;;;5.72;3.42;;;20.20;99.90;;;;;;4998142;28;20209;-61
2022/09/05 08:59:52;;;;;;;3.40;3.10;;;20.40;99.90;;;;;;4992369;28;20233;-62
2022/09/05 09:03:01;;;;;;;6.20;3.28;;;19.60;99.90;;;;;;4982632;28;20233;-62
2022/09/05 09:05:46;;;;;;;9.85;3.45;;;20.50;99.90;;;;;;4980306;28;20741;-61
2022/09/05 09:08:18;;;;;;;7.88;3.22;;;20.60;99.90;;;;;;5010151;28;20221;-61
2022/09/05 09:10:52;;;;;;;6.07;3.72;;;20.60;99.90;;;;;;4991055;28;20202;-61
2022/09/05 09:13:36;;;;;;;3.58;3.17;;;20.60;99.90;;;;;;5005232;28;20206;-62
2022/09/05 09:16:08;;;;;;;3.40;2.90;;;20.80;99.90;;;;;;5002627;28;20922;-62
2022/09/05 09:18:58;;;;;;;5.22;3.03;;;20.90;99.90;;;;;;4980044;28;20199;-62
2022/09/05 09:21:33;;;;;;;3.90;2.83;;;20.80;99.90;;;;;;5007411;28;20194;-62
2022/09/05 09:24:11;;;;;;;4.22;3.50;;;20.90;99.90;;;;;;5004675;28;20197;-62
2022/09/05 09:26:47;;;;;;;4.68;3.50;;;21.00;99.90;;;;;;5000069;28;20201;-62
2022/09/05 09:29:18;;;;;;;5.85;3.20;;;20.50;99.90;;;;;;5013417;28;20233;-63
2022/09/05 09:32:01;;;;;;;5.22;2.85;;;21.10;99.90;;;;;;4999039;28;20715;-62
2022/09/05 09:34:46;;;;;;;3.50;3.20;;;21.10;99.90;;;;;;4987022;28;20242;-62
2022/09/05 09:37:47;;;;;;;5.55;2.97;;;21.50;99.90;;;;;;5002010;28;20202;-62
2022/09/05 09:40:58;;;;;;;4.28;3.38;;;21.30;99.90;;;;;;5001212;28;20213;-61
2022/09/05 09:43:27;;;;;;;7.50;3.35;;;21.40;99.90;;;;;;5011435;28;20275;-61
2022/09/05 09:46:09;;;;;;;3.97;3.22;;;21.50;99.90;;;;;;5000089;28;20206;-61
2022/09/05 09:49:02;;;;;;;13.00;4.03;;;21.60;99.90;;;;;;4985046;28;20761;-62
2022/09/05 09:52:02;;;;;;;3.33;3.03;;;21.60;99.90;;;;;;5009514;28;20201;-62
2022/09/05 09:54:54;;;;;;;3.50;3.20;;;21.70;99.90;;;;;;5010846;28;20217;-62
2022/09/05 09:57:58;;;;;;;8.57;3.38;;;21.80;99.90;;;;;;4998309;28;20203;-62
2022/09/05 10:00:31;;;;;;;3.75;3.33;;;21.80;99.90;;;;;;4969729;28;20198;-61
2022/09/05 10:03:18;;;;;;;3.15;2.88;;;22.00;99.90;;;;;;4993795;28;20773;-61
2022/09/05 10:06:30;;;;;;;6.22;3.47;;;22.10;99.90;;;;;;4981158;28;20261;-61
2022/09/05 10:09:09;;;;;;;5.03;3.15;;;22.10;99.90;;;;;;4992179;28;21408;-62
2022/09/05 10:11:53;;;;;;;4.35;3.15;;;22.10;99.90;;;;;;5006310;28;20202;-61
2022/09/05 10:14:48;;;;;;;4.20;3.10;;;22.20;99.90;;;;;;5014335;28;20272;-60
2022/09/05 10:17:49;;;;;;;7.20;3.20;;;22.20;99.90;;;;;;5004772;28;20214;-61
2022/09/05 10:20:34;;;;;;;2.92;2.63;;;22.30;99.90;;;;;;4987610;28;20217;-61
2022/09/05 10:23:44;;;;;;;3.85;3.05;;;22.30;99.90;;;;;;4999138;28;20214;-61
2022/09/05 10:26:56;;;;;;;8.07;2.90;;;22.40;99.90;;;;;;4980690;28;20272;-61
2022/09/05 10:29:43;;;;;;;5.28;3.10;;;22.50;99.90;;;;;;5007697;28;20249;-60
2022/09/05 10:32:16;;;;;;;7.75;3.22;;;22.60;99.30;;;;;;5002592;28;20210;-61
2022/09/05 10:34:47;;;;;;;5.38;3.70;;;22.60;97.70;;;;;;4999205;28;20206;-60
2022/09/05 10:37:17;;;;;;;5.82;2.95;;;22.70;80.20;;;;;;4984846;28;20210;-61
2022/09/05 10:39:49;;;;;;;9.27;3.17;;;22.70;81.80;;;;;;4998475;28;20904;-61
2022/09/05 10:42:24;;;;;;;10.68;3.25;;;22.80;91.90;;;;;;5007682;28;20795;-61
2022/09/05 10:44:54;;;;;;;4.88;2.70;;;22.90;91.40;;;;;;4996757;28;20193;-61
2022/09/05 10:47:37;;;;;;;4.75;3.28;;;22.90;68.00;;;;;;4997235;28;20203;-61
2022/09/05 10:50:18;;;;;;;3.67;3.30;;;23.10;93.20;;;;;;5004151;28;20240;-61
2022/09/05 10:53:00;;;;;;;4.72;3.00;;;23.10;47.30;;;;;;4984341;28;20219;-61
2022/09/05 10:55:33;;;;;;;4.68;2.85;;;23.20;70.80;;;;;;4997718;28;20198;-61
2022/09/05 10:58:11;;;;;;;5.13;3.10;;;23.30;47.50;;;;;;4992944;28;21037;-61
2022/09/05 11:00:57;;;;;;;3.67;2.90;;;23.30;23.00;;;;;;5003418;28;20617;-61
2022/09/05 11:03:29;;;;;;;4.50;2.78;;;23.30;20.30;;;;;;4985669;28;20202;-61
2022/09/05 11:05:58;;;;;;;2.92;2.63;;;23.30;24.40;;;;;;5004435;28;20230;-61
2022/09/05 11:08:35;;;;;;;4.47;3.35;;;23.30;11.80;;;;;;4981588;28;20936;-60
2022/09/05 11:11:11;;;;;;;3.05;2.75;;;23.40;15.10;;;;;;4990090;28;20225;-60
2022/09/05 11:13:45;;;;;;;3.50;2.90;;;23.40;45.90;;;;;;4998447;28;20753;-61
2022/09/05 11:16:25;;;;;;;5.35;2.95;;;23.50;11.60;;;;;;5009811;28;20217;-60
2022/09/05 11:19:02;;;;;;;3.33;2.65;;;23.50;21.40;;;;;;4996996;28;20209;-60
2022/09/05 11:21:49;;;;;;;7.18;3.15;;;23.50;18.30;;;;;;5005546;28;20198;-60
2022/09/05 11:24:28;;;;;;;7.82;3.08;;;23.80;4.00;;;;;;4996167;28;20623;-60
2022/09/05 11:26:59;;;;;;;3.97;2.90;;;24.30;1.40;;;;;;5000631;28;20228;-60
2022/09/05 11:29:35;;;;;;;4.50;2.60;;;23.80;1.00;;;;;;5003230;28;20226;-60
2022/09/05 11:32:21;;;;;;;5.13;2.97;;;23.80;22.10;;;;;;5005136;28;20202;-60
2022/09/05 11:35:06;;;;;;;3.20;2.90;;;23.80;2.10;;;;;;4997298;28;20203;-61
2022/09/05 11:38:10;;;;;;;3.28;2.63;;;24.00;44.70;;;;;;4996106;28;20288;-61
2022/09/05 11:40:55;;;;;;;5.35;2.97;;;24.00;1.00;;;;;;4995531;28;20202;-60
2022/09/05 11:44:16;;;;;;;5.28;2.75;;;23.10;1.00;;;;;;4984141;28;20206;-61
2022/09/05 11:46:51;;;;;;;3.83;2.65;;;24.00;1.00;;;;;;4992058;28;20221;-61
2022/09/05 11:49:41;;;;;;;3.33;2.92;;;24.10;1.00;;;;;;4996941;28;20225;-61
2022/09/05 11:52:50;;;;;;;4.60;3.10;;;24.10;1.00;;;;;;4994977;28;21555;-61
2022/09/05 11:55:49;;;;;;;3.45;2.60;;;24.20;1.00;;;;;;4988678;28;20787;-61
2022/09/05 11:58:54;;;;;;;5.82;3.22;;;24.30;1.00;;;;;;4990360;28;20724;-60
2022/09/05 12:01:32;;;;;;;6.47;2.90;;;24.40;1.00;;;;;;4952899;28;20225;-60
2022/09/05 12:04:18;;;;;;;2.92;2.55;;;24.40;1.00;;;;;;4988630;28;20595;-60
2022/09/05 12:07:06;;;;;;;3.50;2.58;;;24.40;1.00;;;;;;4973949;28;20222;-61
2022/09/05 12:09:56;;;;;;;5.97;2.83;;;24.50;1.00;;;;;;4959293;28;20227;-61
2022/09/05 12:12:32;;;;;;;6.35;2.75;;;24.50;1.00;;;;;;4982813;28;20229;-61
2022/09/05 12:15:15;;;;;;;5.60;2.28;;;24.50;1.00;;;;;;5001903;28;20213;-61
2022/09/05 12:17:53;;;;;;;3.10;2.60;;;24.50;1.00;;;;;;4968540;28;20707;-61
2022/09/05 12:20:29;;;;;;;4.43;2.53;;;24.50;1.00;;;;;;4999043;28;20233;-60
2022/09/05 12:23:01;;;;;;;2.65;2.30;;;24.60;1.00;;;;;;4989591;28;20213;-61
2022/09/05 12:25:36;;;;;;;4.20;2.28;;;24.40;1.00;;;;;;4949505;28;20225;-61
2022/09/05 12:28:06;;;;;;;2.78;2.58;;;24.60;1.00;;;;;;4981431;28;20226;-60
2022/09/05 12:30:38;;;;;;;4.13;2.75;;;24.50;1.00;;;;;;4981213;28;20234;-60
2022/09/05 12:33:21;;;;;;;5.90;2.67;;;24.70;1.00;;;;;;4984379;28;20228;-60
2022/09/05 12:35:53;;;;;;;3.55;2.20;;;24.60;1.00;;;;;;4995650;28;20279;-61
2022/09/05 12:38:33;;;;;;;3.65;2.65;;;24.70;1.00;;;;;;4972927;28;22766;-60
2022/09/05 12:41:08;;;;;;;2.40;2.20;;;24.90;1.00;;;;;;4959305;28;21042;-60
2022/09/05 12:43:36;;;;;;;2.47;1.98;;;24.90;1.00;;;;;;4992098;28;26223;-60
2022/09/05 12:46:11;;;;;;;2.90;2.60;;;24.90;1.00;;;;;;4967562;28;21087;-60
2022/09/05 12:48:42;;;;;;;9.80;2.55;;;25.10;1.00;;;;;;4981216;28;21033;-60
2022/09/05 12:51:15;;;;;;;8.80;2.83;;;25.00;1.00;;;;;;4999313;28;20214;-60
2022/09/05 12:53:44;;;;;;;3.25;2.45;;;25.10;1.00;;;;;;4986575;28;20260;-60
2022/09/05 12:56:52;;;;;;;2.33;2.13;;;25.10;1.00;;;;;;4972571;28;20214;-60
2022/09/05 12:59:22;;;;;;;2.50;2.30;;;25.00;1.00;;;;;;4994179;28;20611;-60
2022/09/05 13:02:02;;;;;;;2.78;2.30;;;25.10;1.00;;;;;;4978234;28;20986;-61
2022/09/05 13:04:34;;;;;;;3.00;2.33;;;25.10;1.00;;;;;;4975222;28;20198;-60
2022/09/05 13:07:06;;;;;;;3.78;2.15;;;25.20;1.00;;;;;;4993930;28;20202;-60
2022/09/05 13:09:37;;;;;;;4.20;2.25;;;25.20;1.00;;;;;;4990045;28;20226;-60
2022/09/05 13:12:11;;;;;;;2.47;2.28;;;25.10;1.00;;;;;;4974161;28;20218;-61
2022/09/05 13:14:58;;;;;;;3.17;2.33;;;25.10;1.00;;;;;;4998338;28;20833;-60
2022/09/05 13:17:37;;;;;;;2.45;1.98;;;25.20;1.00;;;;;;4975544;28;20222;-60
2022/09/05 13:20:11;;;;;;;2.53;2.33;;;25.30;1.00;;;;;;4978236;28;20222;-60
2022/09/05 13:22:42;;;;;;;2.28;1.80;;;25.30;1.00;;;;;;4982119;22;21075;-60
2022/09/05 13:25:15;;;;;;;6.38;2.15;;;25.60;1.00;;;;;;4968643;28;20230;-60
2022/09/05 13:27:55;;;;;;;2.75;2.25;;;25.60;1.00;;;;;;4953691;28;20250;-61
2022/09/05 13:30:23;;;;;;;2.35;2.05;;;25.50;1.00;;;;;;4987070;28;20222;-60
2022/09/05 13:32:52;;;;;;;4.78;2.60;;;25.50;1.00;;;;;;4976524;28;20708;-61
2022/09/05 13:35:24;;;;;;;6.90;2.55;;;25.50;1.00;;;;;;4974270;28;20232;-61
2022/09/05 13:37:59;;;;;;;4.95;1.85;;;25.60;1.00;;;;;;4987750;28;20214;-60
2022/09/05 13:40:30;;;;;;;3.70;2.22;;;25.50;1.00;;;;;;4967279;28;20218;-61
2022/09/05 13:43:07;;;;;;;3.28;2.97;;;25.50;1.00;;;;;;4964315;28;20241;-60
2022/09/05 13:45:37;;;;;;;2.40;2.20;;;25.50;1.00;;;;;;4977176;28;20231;-60
2022/09/05 13:48:29;;;;;;;3.65;2.20;;;25.70;1.00;;;;;;4978994;28;20207;-61
2022/09/05 13:51:06;;;;;;;7.97;2.33;;;25.70;1.00;;;;;;4975296;28;20233;-61
2022/09/05 13:53:38;;;;;;;4.78;2.20;;;25.70;1.00;;;;;;4987074;28;20213;-61
2022/09/05 13:56:22;;;;;;;2.60;2.30;;;25.70;1.00;;;;;;4970958;28;21275;-61
2022/09/05 13:58:52;;;;;;;2.53;2.13;;;25.70;1.00;;;;;;4961611;28;20215;-60